createdAt,value
2023-05-23T00:01:55.116Z,101042.31
2023-05-23T00:04:21.822Z,101034.63
2023-05-23T00:06:50.370Z,101033.69
2023-05-23T00:09:17.081Z,100931.78
2023-05-23T00:11:45.528Z,101047.31
2023-05-23T00:14:16.016Z,101039.31
2023-05-23T00:16:44.984Z,101029.91
2023-05-23T00:19:12.550Z,100989.38
2023-05-23T00:21:38.975Z,101031.94
2023-05-23T00:24:08.918Z,101033.47
2023-05-23T00:26:35.538Z,100970.25
2023-05-23T00:29:02.103Z,101048.06
2023-05-23T00:31:28.639Z,101046.53
2023-05-23T00:33:55.065Z,101056.94
2023-05-23T00:36:24.196Z,101068.53
2023-05-23T00:38:50.606Z,101045.03
2023-05-23T00:41:18.474Z,101050.47
2023-05-23T00:43:45.004Z,101049.31
2023-05-23T00:46:11.913Z,101082.19
2023-05-23T00:48:38.832Z,101041.19
2023-05-23T00:51:05.667Z,101071.59
2023-05-23T00:53:32.522Z,101094.31
2023-05-23T00:55:58.981Z,101085.78
2023-05-23T00:58:26.152Z,101068.75
2023-05-23T01:00:54.405Z,101070.47
2023-05-23T01:03:21.137Z,101069.03
2023-05-23T01:05:47.770Z,101097.44
2023-05-23T01:08:15.657Z,101074.13
2023-05-23T01:10:42.287Z,100930.16
2023-05-23T01:13:27.251Z,101085.81
2023-05-23T01:16:10.568Z,101079.63
2023-05-23T01:18:46.515Z,101069.00
2023-05-23T01:21:17.330Z,101103.84
2023-05-23T01:24:18.892Z,101102.63
2023-05-23T01:27:05.727Z,101075.81
2023-05-23T01:29:34.138Z,101102.28
2023-05-23T01:32:02.275Z,101094.25
2023-05-23T01:34:31.344Z,101087.72
2023-05-23T01:36:57.799Z,101078.97
2023-05-23T01:39:24.434Z,101042.50
2023-05-23T01:41:52.949Z,101105.06
2023-05-23T01:44:21.244Z,101071.06
2023-05-23T01:46:48.741Z,101095.81
2023-05-23T01:49:18.209Z,101095.91
2023-05-23T01:51:46.393Z,101104.22
2023-05-23T01:54:16.877Z,101111.38
2023-05-23T01:56:43.487Z,101102.38
2023-05-23T01:59:10.120Z,101081.44
2023-05-23T02:01:38.260Z,101118.41
2023-05-23T02:04:04.891Z,101104.81
2023-05-23T02:06:31.821Z,101102.94
2023-05-23T02:08:58.298Z,101094.72
2023-05-23T02:11:24.677Z,101009.81
2023-05-23T02:13:51.686Z,101100.81
2023-05-23T02:16:18.107Z,101120.56
2023-05-23T02:18:46.125Z,101118.94
2023-05-23T02:21:12.640Z,101030.38
2023-05-23T02:23:39.081Z,100996.09
2023-05-23T02:26:05.533Z,101106.91
2023-05-23T02:28:31.918Z,101110.09
2023-05-23T02:30:58.383Z,101126.63
2023-05-23T02:33:24.879Z,101072.59
2023-05-23T02:35:51.475Z,101093.72
2023-05-23T02:38:19.822Z,101120.00
2023-05-23T02:40:46.308Z,101085.69
2023-05-23T02:43:12.821Z,101120.47
2023-05-23T02:45:39.404Z,101121.47
2023-05-23T02:48:05.888Z,101126.00
2023-05-23T02:50:32.540Z,101020.69
2023-05-23T02:52:58.940Z,101137.47
2023-05-23T02:55:25.414Z,101133.22
2023-05-23T02:57:52.337Z,101150.34
2023-05-23T03:00:18.970Z,101138.41
2023-05-23T03:02:45.643Z,101145.63
2023-05-23T03:05:12.185Z,101113.88
2023-05-23T03:07:38.744Z,101132.09
2023-05-23T03:10:05.978Z,101121.63
2023-05-23T03:12:32.541Z,101157.59
2023-05-23T03:14:59.068Z,101139.91
2023-05-23T03:17:26.225Z,101143.97
2023-05-23T03:19:52.804Z,101169.56
2023-05-23T03:22:19.400Z,101118.50
2023-05-23T03:24:46.018Z,101150.09
2023-05-23T03:27:12.619Z,101138.53
2023-05-23T03:29:39.791Z,101155.88
2023-05-23T03:32:06.761Z,101165.06
2023-05-23T03:34:34.060Z,101147.84
2023-05-23T03:37:00.725Z,101139.00
2023-05-23T03:39:27.254Z,101154.13
2023-05-23T03:41:53.770Z,101173.69
2023-05-23T03:44:20.788Z,101141.63
2023-05-23T03:46:47.462Z,101090.19
2023-05-23T03:49:14.040Z,101100.25
2023-05-23T03:51:40.636Z,101157.47
2023-05-23T03:54:07.180Z,101054.56
2023-05-23T03:56:33.756Z,101167.41
2023-05-23T03:59:01.490Z,101167.91
2023-05-23T04:01:28.029Z,101156.06
2023-05-23T04:03:54.638Z,101135.91
2023-05-23T04:06:22.865Z,101184.03
2023-05-23T04:08:49.431Z,101085.72
2023-05-23T04:11:16.104Z,101104.56
2023-05-23T04:13:42.903Z,101180.81
2023-05-23T04:16:09.594Z,101176.03
2023-05-23T04:18:39.232Z,101047.81
2023-05-23T04:21:06.137Z,101160.00
2023-05-23T04:23:32.850Z,101185.09
2023-05-23T04:25:59.257Z,101175.78
2023-05-23T04:28:27.758Z,101145.13
2023-05-23T04:30:54.210Z,101184.53
2023-05-23T04:33:20.887Z,101069.50
2023-05-23T04:35:47.687Z,101149.28
2023-05-23T04:38:14.199Z,101100.34
2023-05-23T04:40:40.633Z,101105.91
2023-05-23T04:43:09.322Z,101182.06
2023-05-23T04:45:36.587Z,101189.44
2023-05-23T04:48:03.691Z,101130.41
2023-05-23T04:50:33.032Z,101202.53
2023-05-23T04:52:59.514Z,101163.47
2023-05-23T04:55:26.511Z,101190.25
2023-05-23T04:57:53.104Z,101164.19
2023-05-23T05:00:20.379Z,101178.78
2023-05-23T05:02:46.786Z,101192.88
2023-05-23T05:05:13.224Z,101208.06
2023-05-23T05:07:40.350Z,101212.53
2023-05-23T05:10:07.161Z,101212.31
2023-05-23T05:12:34.404Z,101210.81
2023-05-23T05:15:00.796Z,101223.94
2023-05-23T05:17:28.042Z,101167.63
2023-05-23T05:19:54.417Z,101235.09
2023-05-23T05:22:20.822Z,101220.16
2023-05-23T05:24:47.257Z,101236.69
2023-05-23T05:27:13.927Z,101147.66
2023-05-23T05:29:40.362Z,101210.16
2023-05-23T05:32:09.285Z,101122.44
2023-05-23T05:34:37.724Z,101210.44
2023-05-23T05:37:04.354Z,101135.72
2023-05-23T05:39:30.784Z,101252.22
2023-05-23T05:41:57.311Z,101254.47
2023-05-23T05:44:23.755Z,101243.38
2023-05-23T05:46:50.241Z,101253.34
2023-05-23T05:49:16.729Z,101259.53
2023-05-23T05:51:43.094Z,101243.47
2023-05-23T05:54:09.622Z,101249.69
2023-05-23T05:56:36.168Z,101231.97
2023-05-23T05:59:02.544Z,101261.53
2023-05-23T06:01:28.996Z,101209.59
2023-05-23T06:03:55.515Z,101199.25
2023-05-23T06:06:22.541Z,101241.44
2023-05-23T06:08:48.977Z,101221.50
2023-05-23T06:11:15.400Z,101255.56
2023-05-23T06:13:41.786Z,101262.91
2023-05-23T06:16:08.294Z,101128.34
2023-05-23T06:18:34.814Z,101250.50
2023-05-23T06:21:01.450Z,101259.34
2023-05-23T06:23:28.352Z,101168.44
2023-05-23T06:25:54.753Z,101257.63
2023-05-23T06:28:21.115Z,101274.84
2023-05-23T06:30:47.492Z,101210.09
2023-05-23T06:33:13.942Z,101146.56
2023-05-23T06:35:40.368Z,101256.47
2023-05-23T06:38:06.761Z,101270.50
2023-05-23T06:40:33.202Z,101280.47
2023-05-23T06:42:59.640Z,101252.81
2023-05-23T06:45:26.109Z,101223.75
2023-05-23T06:47:52.778Z,101260.75
2023-05-23T06:50:20.113Z,101270.03
2023-05-23T06:52:50.128Z,101301.44
2023-05-23T06:55:19.268Z,101269.91
2023-05-23T06:57:46.793Z,101270.72
2023-05-23T07:00:13.958Z,101274.63
2023-05-23T07:02:40.590Z,101253.00
2023-05-23T07:05:07.384Z,101266.75
2023-05-23T07:07:33.810Z,101298.31
2023-05-23T07:10:00.238Z,101302.56
2023-05-23T07:12:26.664Z,101303.88
2023-05-23T07:14:53.056Z,101294.63
2023-05-23T07:17:19.737Z,101280.22
2023-05-23T07:19:46.330Z,101317.50
2023-05-23T07:22:12.753Z,101118.00
2023-05-23T07:24:39.119Z,101212.78
2023-05-23T07:27:06.460Z,101168.00
2023-05-23T07:29:32.935Z,101335.53
2023-05-23T07:31:59.455Z,101197.16
2023-05-23T07:34:26.862Z,101338.47
2023-05-23T07:36:53.302Z,101339.91
2023-05-23T07:39:22.191Z,101341.69
2023-05-23T07:41:49.191Z,101352.06
2023-05-23T07:44:16.788Z,101295.47
2023-05-23T07:46:43.220Z,101282.50
2023-05-23T07:49:09.866Z,101352.34
2023-05-23T07:51:36.279Z,101352.13
2023-05-23T07:54:02.630Z,101340.09
2023-05-23T07:56:29.706Z,101345.81
2023-05-23T07:58:56.096Z,101335.84
2023-05-23T08:01:22.682Z,101273.97
2023-05-23T08:03:49.135Z,101366.75
2023-05-23T08:06:15.530Z,101315.31
2023-05-23T08:08:43.694Z,101350.16
2023-05-23T08:11:10.406Z,101350.25
2023-05-23T08:13:36.851Z,101345.69
2023-05-23T08:16:03.226Z,101333.69
2023-05-23T08:18:30.873Z,101378.72
2023-05-23T08:20:57.595Z,101365.38
2023-05-23T08:23:24.168Z,101366.00
2023-05-23T08:25:51.620Z,101270.31
2023-05-23T08:28:18.925Z,101375.75
2023-05-23T08:30:45.484Z,101350.81
2023-05-23T08:33:12.795Z,101377.19
2023-05-23T08:35:39.343Z,101245.34
2023-05-23T08:38:07.913Z,101372.53
2023-05-23T08:40:36.458Z,101365.28
2023-05-23T08:43:03.157Z,101310.28
2023-05-23T08:45:30.457Z,101303.13
2023-05-23T08:48:01.047Z,101387.75
2023-05-23T08:50:30.472Z,101378.16
2023-05-23T08:52:59.290Z,101369.09
2023-05-23T08:55:27.758Z,101397.13
2023-05-23T08:57:55.296Z,101392.84
2023-05-23T09:00:23.286Z,101280.28
2023-05-23T09:02:50.054Z,101415.25
2023-05-23T09:05:17.010Z,101311.28
2023-05-23T09:07:47.858Z,101441.06
2023-05-23T09:10:17.218Z,101342.22
2023-05-23T09:12:43.695Z,101417.00
2023-05-23T09:15:11.311Z,101422.63
2023-05-23T09:17:38.169Z,101426.84
2023-05-23T09:20:12.097Z,101436.81
2023-05-23T09:22:38.595Z,101398.50
2023-05-23T09:25:05.753Z,101418.78
2023-05-23T09:27:32.209Z,101437.78
2023-05-23T09:30:05.516Z,101430.63
2023-05-23T09:32:32.050Z,101427.78
2023-05-23T09:35:06.498Z,101447.84
2023-05-23T09:37:41.172Z,101434.66
2023-05-23T09:40:10.655Z,101264.97
2023-05-23T09:42:44.085Z,101261.31
2023-05-23T09:45:14.849Z,101292.28
2023-05-23T09:47:52.191Z,101455.88
2023-05-23T09:50:19.759Z,101360.50
2023-05-23T09:52:47.042Z,101415.91
2023-05-23T09:55:14.764Z,101351.88
2023-05-23T09:57:43.268Z,101443.84
2023-05-23T10:00:13.999Z,101428.13
2023-05-23T10:02:54.040Z,101410.28
2023-05-23T10:05:36.833Z,101437.97
2023-05-23T10:08:08.844Z,101402.13
2023-05-23T10:10:50.835Z,101403.75
2023-05-23T10:13:18.602Z,101389.69
2023-05-23T10:15:45.622Z,101433.75
2023-05-23T10:18:20.585Z,101412.09
2023-05-23T10:20:55.562Z,101345.09
2023-05-23T10:23:22.329Z,101315.88
2023-05-23T10:25:49.303Z,101322.78
2023-05-23T10:28:16.137Z,101407.00
2023-05-23T10:30:44.180Z,101435.69
2023-05-23T10:33:12.193Z,101424.69
2023-05-23T10:35:53.716Z,101395.47
2023-05-23T10:38:41.165Z,101398.00
2023-05-23T10:41:12.100Z,101395.13
2023-05-23T10:44:02.446Z,101441.59
2023-05-23T10:47:01.193Z,101447.78
2023-05-23T10:49:37.582Z,101398.00
2023-05-23T10:52:04.194Z,101409.91
2023-05-23T10:54:47.688Z,101436.41
2023-05-23T10:57:19.764Z,101347.19
2023-05-23T10:59:47.095Z,101417.53
2023-05-23T11:02:17.991Z,101448.22
2023-05-23T11:04:44.708Z,101432.22
2023-05-23T11:07:31.628Z,101434.81
2023-05-23T11:10:12.110Z,101430.97
2023-05-23T11:12:43.209Z,101444.94
2023-05-23T11:15:20.558Z,101448.09
2023-05-23T11:17:55.647Z,101456.28
2023-05-23T11:20:26.476Z,101406.31
2023-05-23T11:23:03.470Z,101424.56
2023-05-23T11:25:49.281Z,101443.28
2023-05-23T11:28:17.223Z,101437.03
2023-05-23T11:30:44.323Z,101454.56
2023-05-23T11:33:16.279Z,101354.53
2023-05-23T11:35:47.472Z,101454.09
2023-05-23T11:38:15.062Z,101459.94
2023-05-23T11:40:43.438Z,101464.84
2023-05-23T11:43:15.107Z,101462.50
2023-05-23T11:45:41.906Z,101451.16
2023-05-23T11:48:13.546Z,101467.19
2023-05-23T11:50:45.947Z,101456.25
2023-05-23T11:53:13.807Z,101367.13
2023-05-23T11:55:41.830Z,101380.19
2023-05-23T11:58:10.776Z,101467.53
2023-05-23T12:00:43.773Z,101457.63
2023-05-23T12:03:11.676Z,101447.56
2023-05-23T12:05:38.156Z,101469.72
2023-05-23T12:08:04.659Z,101453.09
2023-05-23T12:10:31.076Z,101441.19
2023-05-23T12:12:58.125Z,101455.00
2023-05-23T12:15:28.312Z,101462.38
2023-05-23T12:17:56.708Z,101464.72
2023-05-23T12:20:24.153Z,101449.50
2023-05-23T12:22:50.578Z,101461.94
2023-05-23T12:25:17.373Z,101468.59
2023-05-23T12:27:44.214Z,101462.38
2023-05-23T12:30:15.001Z,101466.47
2023-05-23T12:32:42.651Z,101461.78
2023-05-23T12:35:12.108Z,101463.34
2023-05-23T12:37:40.262Z,101464.19
2023-05-23T12:40:17.007Z,101470.69
2023-05-23T12:42:53.699Z,101466.47
2023-05-23T12:45:22.286Z,101452.53
2023-05-23T12:47:49.834Z,101457.97
2023-05-23T12:50:17.933Z,101293.50
2023-05-23T12:52:44.826Z,101391.41
2023-05-23T12:55:12.944Z,101472.34
2023-05-23T12:57:39.674Z,101454.19
2023-05-23T13:00:06.681Z,101462.91
2023-05-23T13:02:33.156Z,101463.09
2023-05-23T13:04:59.602Z,101394.34
2023-05-23T13:07:25.998Z,101428.00
2023-05-23T13:09:52.357Z,101452.88
2023-05-23T13:12:19.378Z,101422.84
2023-05-23T13:14:49.761Z,101342.13
2023-05-23T13:17:16.808Z,101348.56
2023-05-23T13:19:43.384Z,101365.22
2023-05-23T13:22:12.804Z,101386.16
2023-05-23T13:24:40.306Z,101366.25
2023-05-23T13:27:07.736Z,101473.22
2023-05-23T13:29:34.466Z,101465.53
2023-05-23T13:32:01.315Z,101475.69
2023-05-23T13:34:28.741Z,101476.50
2023-05-23T13:37:01.323Z,101424.19
2023-05-23T13:39:27.695Z,101454.88
2023-05-23T13:41:54.087Z,101452.59
2023-05-23T13:44:20.575Z,101438.59
2023-05-23T13:46:47.096Z,101464.69
2023-05-23T13:49:13.509Z,101445.03
2023-05-23T13:51:39.988Z,101464.28
2023-05-23T13:54:06.477Z,101377.72
2023-05-23T13:56:33.647Z,101456.38
2023-05-23T13:59:00.461Z,101426.13
2023-05-23T14:01:26.937Z,101449.25
2023-05-23T14:03:53.447Z,101446.06
2023-05-23T14:06:19.917Z,101454.00
2023-05-23T14:08:46.653Z,101359.41
2023-05-23T14:11:13.157Z,101435.13
2023-05-23T14:13:39.545Z,101425.72
2023-05-23T14:16:06.407Z,101454.38
2023-05-23T14:18:32.972Z,101451.59
2023-05-23T14:20:59.369Z,101450.78
2023-05-23T14:23:25.763Z,101436.06
2023-05-23T14:25:52.348Z,101290.94
2023-05-23T14:28:18.871Z,101428.53
2023-05-23T14:30:46.207Z,101374.94
2023-05-23T14:33:12.783Z,101373.47
2023-05-23T14:35:40.008Z,101412.00
2023-05-23T14:38:06.764Z,101373.06
2023-05-23T14:40:33.239Z,101435.41
2023-05-23T14:42:59.786Z,101447.34
2023-05-23T14:45:26.197Z,101447.53
2023-05-23T14:47:52.867Z,101462.28
2023-05-23T14:50:19.561Z,101455.69
2023-05-23T14:52:46.016Z,101329.03
2023-05-23T14:55:12.701Z,101438.63
2023-05-23T14:57:39.519Z,101436.47
2023-05-23T15:00:06.808Z,101332.81
2023-05-23T15:02:33.361Z,101401.97
2023-05-23T15:04:59.954Z,101440.81
2023-05-23T15:07:26.411Z,101447.06
2023-05-23T15:09:52.948Z,101319.16
2023-05-23T15:12:21.690Z,101410.22
2023-05-23T15:14:49.593Z,101429.63
2023-05-23T15:17:20.272Z,101436.69
2023-05-23T15:19:46.902Z,101452.84
2023-05-23T15:22:29.787Z,101389.69
2023-05-23T15:25:00.695Z,101401.13
2023-05-23T15:27:27.111Z,101334.66
2023-05-23T15:29:53.501Z,101419.53
2023-05-23T15:32:19.966Z,101370.78
2023-05-23T15:34:46.494Z,101300.53
2023-05-23T15:37:12.968Z,101449.69
2023-05-23T15:39:39.346Z,101457.31
2023-05-23T15:42:06.041Z,101448.31
2023-05-23T15:44:32.539Z,101373.81
2023-05-23T15:46:59.081Z,101407.47
2023-05-23T15:49:26.953Z,101314.44
2023-05-23T15:51:54.937Z,101447.13
2023-05-23T15:54:21.544Z,101436.06
2023-05-23T15:56:48.428Z,101340.00
2023-05-23T15:59:14.894Z,101329.00
2023-05-23T16:01:44.241Z,101449.81
2023-05-23T16:04:10.927Z,101300.50
2023-05-23T16:06:38.990Z,101380.03
2023-05-23T16:09:05.590Z,101360.78
2023-05-23T16:11:32.046Z,101452.00
2023-05-23T16:13:58.482Z,101447.16
2023-05-23T16:16:24.929Z,101453.31
2023-05-23T16:18:51.587Z,101415.78
2023-05-23T16:21:51.627Z,101378.34
2023-05-23T16:24:19.360Z,101458.28
2023-05-23T16:26:45.893Z,101451.63
2023-05-23T16:29:12.529Z,101433.19
2023-05-23T16:31:39.012Z,101290.94
2023-05-23T16:34:05.938Z,101341.44
2023-05-23T16:36:33.014Z,101251.47
2023-05-23T16:38:59.428Z,101445.56
2023-05-23T16:41:26.315Z,101253.91
2023-05-23T16:43:52.821Z,101445.22
2023-05-23T16:46:22.092Z,101428.25
2023-05-23T16:48:48.994Z,101463.16
2023-05-23T16:51:16.046Z,101374.81
2023-05-23T16:53:44.497Z,101369.00
2023-05-23T16:56:13.715Z,101326.69
2023-05-23T16:58:40.259Z,101372.31
2023-05-23T17:01:08.610Z,101476.06
2023-05-23T17:03:35.552Z,101438.22
2023-05-23T17:06:02.085Z,101373.78
2023-05-23T17:08:28.527Z,101395.78
2023-05-23T17:10:55.026Z,101268.88
2023-05-23T17:13:21.505Z,101395.25
2023-05-23T17:15:48.054Z,101321.53
2023-05-23T17:18:14.663Z,101474.28
2023-05-23T17:20:41.217Z,101488.78
2023-05-23T17:23:07.668Z,101503.09
2023-05-23T17:25:34.140Z,101274.38
2023-05-23T17:28:00.720Z,101479.81
2023-05-23T17:30:28.239Z,101324.41
2023-05-23T17:32:54.782Z,101470.72
2023-05-23T17:35:21.781Z,101474.00
2023-05-23T17:37:48.187Z,101437.41
2023-05-23T17:40:15.694Z,101359.63
2023-05-23T17:42:42.352Z,101500.03
2023-05-23T17:45:09.700Z,101422.66
2023-05-23T17:47:36.462Z,101472.56
2023-05-23T17:50:07.408Z,101406.03
2023-05-23T17:52:34.775Z,101479.72
2023-05-23T17:55:01.735Z,101301.97
2023-05-23T17:57:31.415Z,101506.47
2023-05-23T17:59:59.196Z,101491.41
2023-05-23T18:02:26.995Z,101471.44
2023-05-23T18:04:54.505Z,101499.09
2023-05-23T18:07:21.248Z,101381.88
2023-05-23T18:09:48.371Z,101422.69
2023-05-23T18:12:16.433Z,101496.25
2023-05-23T18:14:43.671Z,101519.53
2023-05-23T18:17:10.419Z,101486.16
2023-05-23T18:19:37.344Z,101499.09
2023-05-23T18:22:04.061Z,101399.59
2023-05-23T18:24:30.565Z,101423.66
2023-05-23T18:26:58.143Z,101404.56
2023-05-23T18:29:24.721Z,101498.56
2023-05-23T18:31:51.245Z,101519.28
2023-05-23T18:34:17.866Z,101530.69
2023-05-23T18:36:45.219Z,101470.09
2023-05-23T18:39:11.628Z,101499.34
2023-05-23T18:41:38.097Z,101519.78
2023-05-23T18:44:05.076Z,101506.84
2023-05-23T18:46:31.616Z,101515.00
2023-05-23T18:48:58.428Z,101486.91
2023-05-23T18:51:26.513Z,101493.53
2023-05-23T18:53:52.962Z,101531.81
2023-05-23T18:56:20.006Z,101532.81
2023-05-23T18:58:47.382Z,101538.38
2023-05-23T19:01:13.900Z,101543.09
2023-05-23T19:03:41.309Z,101537.78
2023-05-23T19:06:08.036Z,101504.88
2023-05-23T19:08:34.565Z,101559.63
2023-05-23T19:11:01.460Z,101420.38
2023-05-23T19:13:27.928Z,101547.09
2023-05-23T19:15:54.484Z,101522.22
2023-05-23T19:18:21.001Z,101482.06
2023-05-23T19:20:51.772Z,101443.41
2023-05-23T19:23:21.453Z,101557.97
2023-05-23T19:25:47.902Z,101534.09
2023-05-23T19:28:17.249Z,101486.69
2023-05-23T19:30:44.337Z,101578.38
2023-05-23T19:33:10.963Z,101562.88
2023-05-23T19:35:39.292Z,101577.31
2023-05-23T19:38:05.860Z,101457.97
2023-05-23T19:40:32.290Z,101489.50
2023-05-23T19:42:58.745Z,101487.53
2023-05-23T19:45:25.461Z,101569.16
2023-05-23T19:47:51.891Z,101503.88
2023-05-23T19:50:19.762Z,101587.88
2023-05-23T19:52:46.184Z,101454.19
2023-05-23T19:55:12.708Z,101451.91
2023-05-23T19:57:39.097Z,101525.78
2023-05-23T20:00:06.328Z,101454.84
2023-05-23T20:02:32.864Z,101534.88
2023-05-23T20:04:59.366Z,101561.91
2023-05-23T20:07:25.863Z,101620.06
2023-05-23T20:09:52.467Z,101434.19
2023-05-23T20:12:18.986Z,101506.28
2023-05-23T20:14:45.918Z,101623.72
2023-05-23T20:17:12.337Z,101513.56
2023-05-23T20:19:40.077Z,101626.53
2023-05-23T20:22:06.708Z,101528.28
2023-05-23T20:24:33.286Z,101613.09
2023-05-23T20:26:59.770Z,101555.66
2023-05-23T20:29:26.590Z,101616.00
2023-05-23T20:31:53.074Z,101577.66
2023-05-23T20:34:19.588Z,101512.22
2023-05-23T20:36:46.009Z,101646.50
2023-05-23T20:39:12.887Z,101636.03
2023-05-23T20:41:41.924Z,101654.75
2023-05-23T20:44:12.434Z,101615.59
2023-05-23T20:46:40.261Z,101665.81
2023-05-23T20:49:14.158Z,101613.78
2023-05-23T20:51:40.624Z,101630.00
2023-05-23T20:54:07.229Z,101671.44
2023-05-23T20:56:33.645Z,101542.78
2023-05-23T20:59:03.286Z,101670.91
2023-05-23T21:01:30.380Z,101651.09
2023-05-23T21:03:57.169Z,101520.66
2023-05-23T21:06:24.309Z,101661.94
2023-05-23T21:08:50.789Z,101669.03
2023-05-23T21:11:17.233Z,101511.09
2023-05-23T21:13:43.728Z,101654.56
2023-05-23T21:16:14.158Z,101683.13
2023-05-23T21:18:40.864Z,101650.25
2023-05-23T21:21:07.405Z,101650.31
2023-05-23T21:23:33.971Z,101543.88
2023-05-23T21:26:00.542Z,101689.94
2023-05-23T21:28:27.380Z,101691.41
2023-05-23T21:30:54.218Z,101570.69
2023-05-23T21:33:21.113Z,101621.56
2023-05-23T21:35:47.713Z,101708.31
2023-05-23T21:38:14.207Z,101683.13
2023-05-23T21:40:40.959Z,101555.38
2023-05-23T21:43:07.671Z,101690.75
2023-05-23T21:45:34.076Z,101663.88
2023-05-23T21:48:00.930Z,101677.78
2023-05-23T21:50:27.478Z,101556.63
2023-05-23T21:52:54.093Z,101658.16
2023-05-23T21:55:20.901Z,101709.78
2023-05-23T21:57:47.314Z,101659.19
2023-05-23T22:00:14.547Z,101492.09
2023-05-23T22:02:41.226Z,101667.16
2023-05-23T22:05:08.771Z,101571.97
2023-05-23T22:07:35.228Z,101487.94
2023-05-23T22:10:01.877Z,101677.97
2023-05-23T22:12:28.658Z,101598.22
2023-05-23T22:14:55.611Z,101698.88
2023-05-23T22:17:22.657Z,101512.59
2023-05-23T22:19:51.850Z,101688.63
2023-05-23T22:22:18.788Z,101688.56
2023-05-23T22:24:45.239Z,101632.09
2023-05-23T22:27:11.686Z,101687.72
2023-05-23T22:29:38.148Z,101676.69
2023-05-23T22:32:05.102Z,101670.75
2023-05-23T22:34:31.636Z,101674.16
2023-05-23T22:37:00.273Z,101612.75
2023-05-23T22:39:26.930Z,101633.44
2023-05-23T22:41:53.630Z,101636.00
2023-05-23T22:44:20.218Z,101699.47
2023-05-23T22:46:46.707Z,101636.81
2023-05-23T22:49:13.145Z,101693.16
2023-05-23T22:51:40.082Z,101674.78
2023-05-23T22:54:06.661Z,101643.63
2023-05-23T22:56:33.225Z,101674.00
2023-05-23T22:58:59.826Z,101674.00
2023-05-23T23:01:26.382Z,101566.50
2023-05-23T23:03:52.889Z,101548.31
2023-05-23T23:06:20.965Z,101570.13
2023-05-23T23:08:47.584Z,101560.34
2023-05-23T23:11:14.003Z,101668.06
2023-05-23T23:13:40.494Z,101634.31
2023-05-23T23:16:08.532Z,101650.69
2023-05-23T23:18:35.077Z,101673.31
2023-05-23T23:21:01.522Z,101689.22
2023-05-23T23:23:27.942Z,101669.16
2023-05-23T23:25:54.545Z,101653.47
2023-05-23T23:28:20.943Z,101682.47
2023-05-23T23:30:47.451Z,101569.63
2023-05-23T23:33:14.488Z,101695.47
2023-05-23T23:35:41.094Z,101692.78
2023-05-23T23:38:07.568Z,101678.25
2023-05-23T23:40:33.990Z,101659.94
2023-05-23T23:43:00.595Z,101634.84
2023-05-23T23:45:26.976Z,101676.50
2023-05-23T23:47:53.493Z,101660.97
2023-05-23T23:50:19.948Z,101680.25
2023-05-23T23:52:46.463Z,101570.09
2023-05-23T23:55:12.933Z,101680.41
2023-05-23T23:57:39.372Z,101671.00
